Time;durP1;ratioP1;P1;durP2;ratioP2;P2;SDS_P1;SDS_P2;PMS_P1;PMS_P2;Temp;Humidity;BMP_temperature;BMP_pressure;BME280_temperature;BME280_humidity;BME280_pressure;Samples;Min_cycle;Max_cycle;Signal;HPM_P1;HPM_P2
2021/07/26 00:00:46;;;;;;;2.87;2.07;;;19.10;99.90;;;;;;5034635;28;20628;-70
2021/07/26 00:03:11;;;;;;;3.80;2.70;;;19.10;99.90;;;;;;5034524;28;20423;-70
2021/07/26 00:05:37;;;;;;;1.97;1.80;;;19.10;99.90;;;;;;5034278;28;20207;-70
2021/07/26 00:08:02;;;;;;;2.90;2.20;;;19.10;99.90;;;;;;5034328;28;20187;-70
2021/07/26 00:10:28;;;;;;;5.80;2.47;;;19.00;99.90;;;;;;5034180;28;20519;-70
2021/07/26 00:12:53;;;;;;;3.40;2.40;;;19.00;99.90;;;;;;5033858;28;20172;-70
2021/07/26 00:15:19;;;;;;;2.60;2.10;;;19.00;99.90;;;;;;5034238;28;20271;-70
2021/07/26 00:17:44;;;;;;;3.23;2.20;;;19.00;99.90;;;;;;5034100;28;20287;-70
2021/07/26 00:20:11;;;;;;;2.80;2.30;;;19.00;99.90;;;;;;5034201;28;20168;-70
2021/07/26 00:22:38;;;;;;;3.20;2.10;;;19.00;99.90;;;;;;5034061;28;20249;-70
2021/07/26 00:25:06;;;;;;;2.53;2.20;;;19.00;99.90;;;;;;5033974;28;20448;-70
2021/07/26 00:27:31;;;;;;;2.60;2.40;;;19.00;99.90;;;;;;5033214;28;20398;-70
2021/07/26 00:29:57;;;;;;;3.30;2.70;;;19.00;99.90;;;;;;5033657;28;20777;-70
2021/07/26 00:32:22;;;;;;;2.30;2.10;;;19.00;99.90;;;;;;5033969;28;20674;-70
2021/07/26 00:34:48;;;;;;;3.27;2.40;;;18.90;99.90;;;;;;5034012;28;20499;-70
2021/07/26 00:37:14;;;;;;;2.30;2.10;;;18.90;99.90;;;;;;5033823;28;20284;-70
2021/07/26 00:39:40;;;;;;;2.43;1.87;;;18.90;99.90;;;;;;5033853;28;20148;-70
2021/07/26 00:42:06;;;;;;;2.40;1.90;;;18.90;99.90;;;;;;5033625;28;20158;-69
2021/07/26 00:44:33;;;;;;;2.40;2.03;;;18.90;99.90;;;;;;5033409;28;20448;-69
2021/07/26 00:47:00;;;;;;;4.60;2.60;;;18.90;99.90;;;;;;5033121;28;20674;-70
2021/07/26 00:49:27;;;;;;;1.83;1.67;;;18.90;99.90;;;;;;5033599;28;20452;-70
2021/07/26 00:51:54;;;;;;;2.50;2.17;;;18.90;99.90;;;;;;5033745;28;20434;-70
2021/07/26 00:54:23;;;;;;;2.40;2.03;;;18.80;99.90;;;;;;5033537;28;20419;-69
2021/07/26 00:56:50;;;;;;;2.47;1.93;;;18.80;99.90;;;;;;5033388;28;20536;-69
2021/07/26 00:59:17;;;;;;;2.03;1.70;;;18.80;99.90;;;;;;5033431;28;20519;-70
2021/07/26 01:01:42;;;;;;;2.57;2.07;;;18.80;99.90;;;;;;5033253;28;20781;-70
2021/07/26 01:04:08;;;;;;;2.70;1.97;;;18.80;99.90;;;;;;5032940;28;20469;-70
2021/07/26 01:06:35;;;;;;;2.80;2.33;;;18.80;99.90;;;;;;5033175;28;20536;-70
2021/07/26 01:09:01;;;;;;;3.97;1.73;;;18.80;99.90;;;;;;5033274;28;20895;-70
2021/07/26 01:11:27;;;;;;;3.90;2.60;;;18.80;99.90;;;;;;5033074;28;20397;-70
2021/07/26 01:13:53;;;;;;;4.50;2.87;;;18.80;99.90;;;;;;5033275;28;20729;-70
2021/07/26 01:16:19;;;;;;;2.60;2.10;;;18.70;99.90;;;;;;5033069;28;20399;-70
2021/07/26 01:18:44;;;;;;;4.47;2.53;;;18.70;99.90;;;;;;5020973;28;20183;-70
2021/07/26 01:21:13;;;;;;;3.67;1.90;;;18.70;99.90;;;;;;5032994;28;20233;-70
2021/07/26 01:23:41;;;;;;;1.87;1.77;;;18.70;99.90;;;;;;5032791;28;20182;-70
2021/07/26 01:26:09;;;;;;;2.50;2.23;;;18.80;99.90;;;;;;5032915;28;20437;-69
2021/07/26 01:28:37;;;;;;;2.67;1.77;;;18.70;99.90;;;;;;5033271;28;20398;-70
2021/07/26 01:31:04;;;;;;;2.23;1.87;;;18.70;99.90;;;;;;5033024;28;20629;-69
2021/07/26 01:33:30;;;;;;;2.30;1.80;;;18.70;99.90;;;;;;5033014;28;20409;-69
2021/07/26 01:35:56;;;;;;;2.90;1.70;;;18.70;99.90;;;;;;5032665;28;20439;-69
2021/07/26 01:38:22;;;;;;;3.77;1.70;;;18.70;99.90;;;;;;5032557;28;20475;-70
2021/07/26 01:40:50;;;;;;;4.03;2.30;;;18.70;99.90;;;;;;5032582;28;20954;-70
2021/07/26 01:43:17;;;;;;;2.10;1.80;;;18.70;99.90;;;;;;5033153;28;20252;-70
2021/07/26 01:45:54;;;;;;;2.70;1.70;;;18.70;99.90;;;;;;5032564;28;20476;-70
2021/07/26 01:48:26;;;;;;;2.83;2.07;;;18.60;99.90;;;;;;5023465;28;20423;-70
2021/07/26 01:50:59;;;;;;;2.67;2.00;;;18.60;99.90;;;;;;5012847;28;20396;-70
2021/07/26 01:53:26;;;;;;;2.73;2.13;;;18.60;99.90;;;;;;5021651;28;20477;-69
2021/07/26 01:55:51;;;;;;;1.77;1.67;;;18.60;99.90;;;;;;5032393;28;20430;-69
2021/07/26 01:58:17;;;;;;;4.70;1.93;;;18.60;99.90;;;;;;5032701;28;20401;-70
2021/07/26 02:00:43;;;;;;;2.33;2.13;;;18.60;99.90;;;;;;5032686;28;20236;-70
2021/07/26 02:03:08;;;;;;;2.80;2.00;;;18.60;99.90;;;;;;5032637;28;20403;-70
2021/07/26 02:05:34;;;;;;;3.13;2.50;;;18.60;99.90;;;;;;5032244;28;20200;-70
2021/07/26 02:07:59;;;;;;;2.00;1.80;;;18.60;99.90;;;;;;5032378;28;20162;-69
2021/07/26 02:10:25;;;;;;;3.47;2.47;;;18.60;99.90;;;;;;5032097;28;20649;-69
2021/07/26 02:12:50;;;;;;;4.70;2.30;;;18.60;99.90;;;;;;5032537;28;20207;-69
2021/07/26 02:15:16;;;;;;;2.63;2.00;;;18.60;99.90;;;;;;5032701;28;20514;-69
2021/07/26 02:17:41;;;;;;;3.33;2.40;;;18.50;99.90;;;;;;5025283;28;20184;-70
2021/07/26 02:20:08;;;;;;;1.93;1.83;;;18.60;99.90;;;;;;5027015;28;20180;-70
2021/07/26 02:22:33;;;;;;;2.97;2.50;;;18.60;99.90;;;;;;5032243;28;20641;-70
2021/07/26 02:24:59;;;;;;;2.20;2.00;;;18.50;99.90;;;;;;5032742;28;20443;-69
2021/07/26 02:27:25;;;;;;;2.57;2.37;;;18.50;99.90;;;;;;5032619;28;20251;-68
2021/07/26 02:29:51;;;;;;;2.73;1.73;;;18.50;99.90;;;;;;5032378;28;20490;-68
2021/07/26 02:32:16;;;;;;;1.77;1.67;;;18.50;99.90;;;;;;5032136;28;20403;-69
2021/07/26 02:34:42;;;;;;;2.27;1.90;;;18.50;99.90;;;;;;5032201;28;20178;-69
2021/07/26 02:37:08;;;;;;;2.53;2.00;;;18.50;99.90;;;;;;5032174;28;20156;-68
2021/07/26 02:39:34;;;;;;;5.10;2.33;;;18.50;99.90;;;;;;5032472;28;20168;-68
2021/07/26 02:41:59;;;;;;;2.33;2.13;;;18.50;99.90;;;;;;5032499;28;20759;-69
2021/07/26 02:44:25;;;;;;;2.70;2.00;;;18.50;99.90;;;;;;5031829;28;20193;-69
2021/07/26 02:46:50;;;;;;;2.97;1.50;;;18.50;99.90;;;;;;5032079;28;20175;-69
2021/07/26 02:49:16;;;;;;;2.10;1.80;;;18.50;99.90;;;;;;5029734;28;20200;-68
2021/07/26 02:51:41;;;;;;;2.30;2.10;;;18.50;99.90;;;;;;5013912;28;20282;-68
2021/07/26 02:54:07;;;;;;;2.30;1.87;;;18.50;99.90;;;;;;5016050;28;20632;-68
2021/07/26 02:56:33;;;;;;;2.17;1.97;;;18.50;99.90;;;;;;5016365;28;20616;-69
2021/07/26 02:58:58;;;;;;;2.67;1.90;;;18.50;99.90;;;;;;5015933;28;20186;-69
2021/07/26 03:01:24;;;;;;;2.50;1.80;;;18.50;99.90;;;;;;5024960;28;20173;-69
2021/07/26 03:03:49;;;;;;;2.83;1.97;;;18.50;99.90;;;;;;5035542;28;20723;-69
2021/07/26 03:06:19;;;;;;;2.07;1.80;;;18.50;99.90;;;;;;5035353;28;20541;-68
2021/07/26 03:08:45;;;;;;;2.50;1.97;;;18.50;99.90;;;;;;5035480;28;20649;-68
2021/07/26 03:11:11;;;;;;;3.30;2.13;;;18.50;99.90;;;;;;5035707;28;20853;-69
2021/07/26 03:13:39;;;;;;;2.80;2.37;;;18.50;99.90;;;;;;5035429;28;20495;-69
2021/07/26 03:16:06;;;;;;;2.73;1.87;;;18.50;99.90;;;;;;5035319;28;20927;-69
2021/07/26 03:18:32;;;;;;;3.30;2.00;;;18.50;99.90;;;;;;5031252;28;20523;-68
2021/07/26 03:20:58;;;;;;;2.47;1.70;;;18.60;99.90;;;;;;5035335;28;20936;-68
2021/07/26 03:23:23;;;;;;;3.00;2.30;;;18.50;99.90;;;;;;5035216;28;20691;-68
2021/07/26 03:25:49;;;;;;;6.40;2.70;;;18.50;99.90;;;;;;5035487;28;20218;-68
2021/07/26 03:28:14;;;;;;;2.03;1.67;;;18.50;99.90;;;;;;5035158;28;20163;-68
2021/07/26 03:30:40;;;;;;;2.30;1.80;;;18.50;99.90;;;;;;5035102;28;20157;-69
2021/07/26 03:33:06;;;;;;;2.27;2.03;;;18.50;99.90;;;;;;5035170;28;20296;-69
2021/07/26 03:35:31;;;;;;;2.30;2.00;;;18.40;99.90;;;;;;5034814;28;20651;-68
2021/07/26 03:37:57;;;;;;;2.47;2.07;;;18.40;99.90;;;;;;5035062;28;20301;-68
2021/07/26 03:40:22;;;;;;;2.90;2.10;;;18.40;99.90;;;;;;5035082;28;20184;-69
2021/07/26 03:42:49;;;;;;;2.87;2.40;;;18.40;99.90;;;;;;5034662;28;20173;-68
2021/07/26 03:45:17;;;;;;;2.13;1.90;;;18.40;99.90;;;;;;5034715;28;20203;-68
2021/07/26 03:47:43;;;;;;;2.40;2.00;;;18.40;99.90;;;;;;5035014;28;20404;-68
2021/07/26 03:50:09;;;;;;;3.07;2.50;;;18.40;99.90;;;;;;5025352;28;20422;-68
2021/07/26 03:52:52;;;;;;;2.40;1.97;;;18.40;99.90;;;;;;5025213;28;20181;-68
2021/07/26 03:55:21;;;;;;;2.73;2.30;;;18.40;99.90;;;;;;5035205;28;20405;-69
2021/07/26 03:57:48;;;;;;;2.63;2.30;;;18.40;99.90;;;;;;5034541;28;20394;-68
2021/07/26 04:00:16;;;;;;;2.33;2.13;;;18.40;99.90;;;;;;5034534;28;20491;-68
2021/07/26 04:02:42;;;;;;;2.60;2.37;;;18.40;99.90;;;;;;5034751;28;20424;-68
2021/07/26 04:05:19;;;;;;;2.50;2.10;;;18.40;99.90;;;;;;5034365;28;20525;-68
2021/07/26 04:07:47;;;;;;;2.10;1.90;;;18.40;99.90;;;;;;5034543;28;20423;-68
2021/07/26 04:10:13;;;;;;;1.93;1.67;;;18.40;99.90;;;;;;5035101;28;20494;-68
2021/07/26 04:12:42;;;;;;;2.10;1.90;;;18.40;99.90;;;;;;5034380;28;20402;-68
2021/07/26 04:15:10;;;;;;;3.90;2.77;;;18.50;99.90;;;;;;5034063;28;20396;-68
2021/07/26 04:17:36;;;;;;;2.43;2.23;;;18.50;99.90;;;;;;5034279;28;20402;-68
2021/07/26 04:20:03;;;;;;;2.03;1.83;;;18.50;99.90;;;;;;5034178;28;20424;-68
2021/07/26 04:22:29;;;;;;;2.40;2.20;;;18.50;99.90;;;;;;5034469;28;20558;-68
2021/07/26 04:24:55;;;;;;;2.43;1.93;;;18.50;99.90;;;;;;5034537;28;20957;-69
2021/07/26 04:27:20;;;;;;;2.73;1.73;;;18.60;99.90;;;;;;5033759;28;20421;-69
2021/07/26 04:29:46;;;;;;;3.00;2.57;;;18.60;99.90;;;;;;5034253;28;20156;-68
2021/07/26 04:32:12;;;;;;;2.83;2.53;;;18.60;99.90;;;;;;5033929;28;20642;-68
2021/07/26 04:34:37;;;;;;;2.30;2.10;;;18.70;99.90;;;;;;5033974;28;20207;-68
2021/07/26 04:37:03;;;;;;;2.43;2.00;;;18.70;99.90;;;;;;5034345;28;20160;-68
2021/07/26 04:39:29;;;;;;;2.47;1.93;;;18.70;99.90;;;;;;5034503;28;20239;-68
2021/07/26 04:41:54;;;;;;;3.03;1.70;;;18.80;99.90;;;;;;5033856;28;20225;-68
2021/07/26 04:44:20;;;;;;;2.53;2.30;;;18.80;99.90;;;;;;5033250;28;20169;-68
2021/07/26 04:46:45;;;;;;;3.43;2.47;;;18.80;99.90;;;;;;5033725;28;20149;-68
2021/07/26 04:49:11;;;;;;;2.77;2.17;;;18.90;99.90;;;;;;5033728;28;20216;-68
2021/07/26 04:51:36;;;;;;;2.97;2.63;;;18.90;99.90;;;;;;5033983;28;20192;-69
2021/07/26 04:54:02;;;;;;;1.83;1.63;;;18.90;99.90;;;;;;5034072;28;20219;-68
2021/07/26 04:56:27;;;;;;;2.97;2.30;;;19.00;99.90;;;;;;5033525;28;20509;-68
2021/07/26 04:58:53;;;;;;;4.23;2.83;;;19.00;99.90;;;;;;5033411;28;20551;-68
2021/07/26 05:01:18;;;;;;;2.03;1.43;;;19.00;99.90;;;;;;5033415;28;20733;-69
2021/07/26 05:03:44;;;;;;;3.03;2.60;;;19.10;99.90;;;;;;5033426;28;20170;-68
2021/07/26 05:06:09;;;;;;;2.53;2.07;;;19.10;99.90;;;;;;5033655;28;20208;-68
2021/07/26 05:08:35;;;;;;;3.00;2.20;;;19.20;99.90;;;;;;5033720;28;20633;-68
2021/07/26 05:11:01;;;;;;;5.03;2.47;;;19.20;99.90;;;;;;5033303;28;20206;-68
2021/07/26 05:13:26;;;;;;;2.10;1.90;;;19.20;99.90;;;;;;5033222;28;20157;-68
2021/07/26 05:15:52;;;;;;;2.23;2.00;;;19.30;99.90;;;;;;5030819;28;21058;-68
2021/07/26 05:18:18;;;;;;;4.07;2.27;;;19.30;99.90;;;;;;5032088;28;20181;-68
2021/07/26 05:20:43;;;;;;;2.23;1.83;;;19.40;99.90;;;;;;5025657;28;20188;-69
2021/07/26 05:23:10;;;;;;;2.40;2.20;;;19.50;99.90;;;;;;5033480;28;20520;-69
2021/07/26 05:25:36;;;;;;;2.20;1.80;;;19.50;99.90;;;;;;5032966;28;20664;-68
2021/07/26 05:28:01;;;;;;;2.70;2.37;;;19.60;99.90;;;;;;5031387;28;20952;-69
2021/07/26 05:30:27;;;;;;;2.97;2.17;;;19.60;99.90;;;;;;5030903;28;20427;-68
2021/07/26 05:32:53;;;;;;;2.20;2.00;;;19.60;99.90;;;;;;5032330;28;20161;-68
2021/07/26 05:35:20;;;;;;;2.93;2.63;;;19.60;99.90;;;;;;5033132;28;20226;-68
2021/07/26 05:37:45;;;;;;;3.40;2.20;;;19.60;99.90;;;;;;5032145;28;20428;-69
2021/07/26 05:40:11;;;;;;;3.00;2.27;;;19.60;99.90;;;;;;5031004;28;20432;-68
2021/07/26 05:42:37;;;;;;;2.70;2.47;;;19.70;99.90;;;;;;5031533;28;20205;-68
2021/07/26 05:45:04;;;;;;;2.47;2.00;;;19.60;99.90;;;;;;5032278;28;20454;-69
2021/07/26 05:47:30;;;;;;;3.13;2.43;;;19.60;99.90;;;;;;5031383;28;20184;-68
2021/07/26 05:49:56;;;;;;;6.03;2.50;;;19.70;99.90;;;;;;5031219;28;20519;-68
2021/07/26 05:52:22;;;;;;;2.17;1.97;;;19.80;99.90;;;;;;5032497;28;20498;-68
2021/07/26 05:54:47;;;;;;;3.50;1.90;;;19.80;99.90;;;;;;5031180;28;20183;-68
2021/07/26 05:57:15;;;;;;;3.03;2.73;;;19.90;99.90;;;;;;5032855;28;20244;-68
2021/07/26 05:59:43;;;;;;;1.90;1.80;;;19.90;99.90;;;;;;5031651;28;20208;-68
2021/07/26 06:02:09;;;;;;;2.80;2.40;;;19.90;99.90;;;;;;5030916;28;20426;-68
2021/07/26 06:04:34;;;;;;;3.20;2.73;;;20.00;99.90;;;;;;5033058;28;20455;-69
2021/07/26 06:07:00;;;;;;;3.90;2.60;;;20.00;99.90;;;;;;5030724;28;20169;-68
2021/07/26 06:09:26;;;;;;;5.40;2.50;;;20.10;99.90;;;;;;5031538;28;20164;-68
2021/07/26 06:11:53;;;;;;;3.73;2.37;;;20.10;99.90;;;;;;5032532;28;20564;-69
2021/07/26 06:14:20;;;;;;;3.23;2.20;;;20.20;99.90;;;;;;5031922;28;20395;-69
2021/07/26 06:16:49;;;;;;;3.30;2.10;;;20.10;99.90;;;;;;5032486;28;20398;-68
2021/07/26 06:19:15;;;;;;;2.40;2.20;;;20.10;99.90;;;;;;5029334;28;20415;-69
2021/07/26 06:21:44;;;;;;;3.30;2.37;;;20.10;99.90;;;;;;5028624;28;20427;-69
2021/07/26 06:24:11;;;;;;;2.40;2.10;;;20.10;99.90;;;;;;5024272;28;20936;-69
2021/07/26 06:26:37;;;;;;;3.60;2.17;;;20.20;99.90;;;;;;5029758;28;20438;-68
2021/07/26 06:29:04;;;;;;;2.50;2.30;;;20.30;99.90;;;;;;5029427;28;20427;-69
2021/07/26 06:31:32;;;;;;;2.50;2.30;;;20.40;99.90;;;;;;5025942;28;20438;-68
2021/07/26 06:33:59;;;;;;;2.70;2.10;;;20.50;99.90;;;;;;5030726;28;20423;-68
2021/07/26 06:36:24;;;;;;;2.83;2.63;;;20.70;99.90;;;;;;5032704;28;20419;-68
2021/07/26 06:38:50;;;;;;;2.63;2.43;;;20.80;99.90;;;;;;5035617;28;20419;-69
2021/07/26 06:41:15;;;;;;;4.00;2.87;;;21.00;99.90;;;;;;5030979;28;20178;-69
2021/07/26 06:43:41;;;;;;;3.33;2.43;;;21.10;99.90;;;;;;5029943;28;20188;-69
2021/07/26 06:46:07;;;;;;;2.13;1.90;;;21.20;99.90;;;;;;5032545;28;20184;-69
2021/07/26 06:48:33;;;;;;;2.40;1.67;;;21.30;99.90;;;;;;5025626;28;20633;-69
2021/07/26 06:50:59;;;;;;;1.60;1.50;;;21.40;99.90;;;;;;5027644;28;20456;-69
2021/07/26 06:53:25;;;;;;;2.53;1.90;;;21.50;99.90;;;;;;5028937;28;20207;-69
2021/07/26 06:55:51;;;;;;;2.73;1.97;;;21.50;99.90;;;;;;5032511;28;20428;-69
2021/07/26 06:58:17;;;;;;;3.30;2.33;;;21.60;99.90;;;;;;5028540;28;20435;-69
2021/07/26 07:00:42;;;;;;;2.33;2.03;;;21.60;99.90;;;;;;5028861;28;20431;-71
2021/07/26 07:03:08;;;;;;;3.60;1.73;;;21.60;99.90;;;;;;5030955;28;20657;-71
2021/07/26 07:05:33;;;;;;;2.27;1.90;;;21.70;99.90;;;;;;5032553;28;20197;-73
2021/07/26 07:07:59;;;;;;;3.80;2.50;;;21.70;99.90;;;;;;5029112;28;20193;-72
2021/07/26 07:10:25;;;;;;;2.23;2.03;;;21.70;99.90;;;;;;5029022;28;21024;-72
2021/07/26 07:12:51;;;;;;;2.23;1.53;;;21.80;99.90;;;;;;5031452;28;20229;-72
2021/07/26 07:15:19;;;;;;;3.37;2.20;;;21.90;99.90;;;;;;5029595;28;20195;-71
2021/07/26 07:17:46;;;;;;;1.80;1.70;;;22.00;99.90;;;;;;5032694;28;20780;-70
2021/07/26 07:20:13;;;;;;;1.93;1.70;;;22.10;99.90;;;;;;5031033;28;20439;-71
2021/07/26 07:22:38;;;;;;;2.57;1.70;;;22.20;99.90;;;;;;5031528;28;20785;-70
2021/07/26 07:25:04;;;;;;;3.60;2.20;;;22.30;99.90;;;;;;5032423;28;20455;-71
2021/07/26 07:27:30;;;;;;;2.10;1.90;;;22.40;99.90;;;;;;5028653;28;20175;-68
2021/07/26 07:29:55;;;;;;;2.27;2.07;;;22.50;99.90;;;;;;5032060;28;20908;-70
2021/07/26 07:32:22;;;;;;;1.80;1.60;;;22.70;99.90;;;;;;5034621;28;20571;-72
2021/07/26 07:34:47;;;;;;;2.70;1.87;;;22.80;99.90;;;;;;5033412;28;20191;-71
2021/07/26 07:37:13;;;;;;;2.83;1.87;;;23.00;99.90;;;;;;5030371;28;20439;-70
2021/07/26 07:39:38;;;;;;;2.60;2.00;;;23.10;99.90;;;;;;5033250;28;20191;-70
2021/07/26 07:42:05;;;;;;;3.23;1.70;;;23.40;99.90;;;;;;5032615;28;20646;-70
2021/07/26 07:44:32;;;;;;;3.00;2.00;;;23.80;99.90;;;;;;5022308;28;20634;-71
2021/07/26 07:46:59;;;;;;;1.97;1.60;;;24.10;99.90;;;;;;5030818;28;20530;-70
2021/07/26 07:49:25;;;;;;;3.03;2.27;;;24.40;99.90;;;;;;5027846;28;20506;-70
2021/07/26 07:51:51;;;;;;;3.07;2.00;;;24.80;99.90;;;;;;5030854;28;20966;-70
2021/07/26 07:54:16;;;;;;;4.23;1.97;;;25.20;99.90;;;;;;5029558;28;20526;-70
2021/07/26 07:56:43;;;;;;;2.10;1.80;;;25.40;99.90;;;;;;5026629;28;20173;-70
2021/07/26 07:59:10;;;;;;;3.00;2.00;;;25.50;99.90;;;;;;5030559;28;20205;-70
2021/07/26 08:01:36;;;;;;;2.70;1.73;;;25.50;99.90;;;;;;5031796;28;20431;-70
2021/07/26 08:04:03;;;;;;;3.60;1.73;;;25.70;99.90;;;;;;5029212;28;20431;-70
2021/07/26 08:06:29;;;;;;;2.40;2.00;;;25.80;99.90;;;;;;5030786;28;20458;-70
2021/07/26 08:08:54;;;;;;;3.70;1.70;;;25.90;99.90;;;;;;5031399;28;20997;-70
2021/07/26 08:11:20;;;;;;;2.73;1.67;;;26.10;99.90;;;;;;5033707;28;20172;-70
2021/07/26 08:13:45;;;;;;;2.10;1.57;;;26.40;99.90;;;;;;5031816;28;20215;-71
2021/07/26 08:16:11;;;;;;;3.93;1.90;;;26.80;99.90;;;;;;5030474;28;20189;-70
2021/07/26 08:18:37;;;;;;;2.90;2.23;;;27.00;99.90;;;;;;5030490;28;20183;-70
2021/07/26 08:21:02;;;;;;;5.57;2.40;;;27.10;99.90;;;;;;5024692;28;20173;-70
2021/07/26 08:23:28;;;;;;;2.47;2.10;;;27.00;99.90;;;;;;5027752;28;20180;-71
2021/07/26 08:25:53;;;;;;;2.40;1.80;;;26.40;99.60;;;;;;5023341;28;20394;-70
2021/07/26 08:28:19;;;;;;;3.37;1.87;;;26.10;99.90;;;;;;5028606;28;20180;-70
2021/07/26 08:30:45;;;;;;;3.43;2.10;;;25.90;99.90;;;;;;5031492;28;20531;-70
2021/07/26 08:33:10;;;;;;;2.43;2.23;;;25.50;99.90;;;;;;5032353;28;20180;-70
2021/07/26 08:35:37;;;;;;;2.60;2.40;;;25.40;99.90;;;;;;5030958;28;20435;-70
2021/07/26 08:38:04;;;;;;;3.20;2.63;;;25.10;99.90;;;;;;5029080;28;20291;-70
2021/07/26 08:40:31;;;;;;;2.67;2.43;;;25.00;99.90;;;;;;5033052;28;20922;-70
2021/07/26 08:43:02;;;;;;;3.27;2.83;;;24.80;99.90;;;;;;5034809;28;20436;-70
2021/07/26 08:45:28;;;;;;;2.67;2.47;;;24.70;99.90;;;;;;5027602;28;20936;-70
2021/07/26 08:47:59;;;;;;;3.10;2.70;;;24.60;99.90;;;;;;5028474;28;20467;-70
2021/07/26 08:50:25;;;;;;;2.03;1.90;;;24.40;99.90;;;;;;5027842;28;20174;-70
2021/07/26 08:52:52;;;;;;;1.90;1.60;;;24.60;99.90;;;;;;5028071;28;20419;-70
2021/07/26 08:55:21;;;;;;;2.50;2.30;;;24.80;99.90;;;;;;5027370;28;20178;-70
2021/07/26 08:57:48;;;;;;;2.00;1.73;;;25.20;99.90;;;;;;5030516;28;20509;-71
2021/07/26 09:00:16;;;;;;;3.10;1.60;;;26.20;99.90;;;;;;5028701;28;20944;-71
2021/07/26 09:02:42;;;;;;;2.97;1.90;;;27.80;99.10;;;;;;5028200;28;20435;-71
2021/07/26 09:05:09;;;;;;;2.30;1.50;;;30.10;93.90;;;;;;5029808;28;20467;-71
2021/07/26 09:07:40;;;;;;;2.27;1.67;;;31.80;85.90;;;;;;5027429;28;20165;-71
2021/07/26 09:10:23;;;;;;;2.83;1.83;;;33.20;76.00;;;;;;5028491;28;20960;-72
2021/07/26 09:12:50;;;;;;;2.40;1.70;;;34.50;64.40;;;;;;5030608;28;20950;-72
2021/07/26 09:20:51;;;;;;;1.93;1.53;;;34.00;60.40;;;;;;5061060;28;20590;-72
2021/07/26 09:23:18;;;;;;;2.90;2.03;;;32.60;62.30;;;;;;5074069;28;20846;-72
2021/07/26 09:25:45;;;;;;;2.17;1.63;;;32.40;65.10;;;;;;5064973;28;20429;-72
2021/07/26 09:30:53;;;;;;;2.27;1.77;;;32.50;64.70;;;;;;5040549;28;20545;-72
2021/07/26 09:41:48;;;;;;;1.50;1.40;;;31.40;64.80;;;;;;5062249;28;20528;-72
2021/07/26 09:44:20;;;;;;;1.67;1.57;;;31.00;66.70;;;;;;5041176;28;20433;-72
2021/07/26 09:46:45;;;;;;;2.27;1.70;;;30.60;69.10;;;;;;5048676;28;20957;-72
2021/07/26 09:52:08;;;;;;;3.30;2.30;;;30.30;68.20;;;;;;5044888;28;20647;-72
2021/07/26 09:54:52;;;;;;;2.50;2.10;;;29.60;70.10;;;;;;5041843;28;20422;-72
2021/07/26 10:00:01;;;;;;;3.30;1.73;;;29.30;74.50;;;;;;5053805;28;20529;-73
2021/07/26 10:02:28;;;;;;;1.73;1.63;;;29.30;73.80;;;;;;5060300;28;21241;-73
2021/07/26 10:04:54;;;;;;;2.53;2.17;;;29.20;72.30;;;;;;5057038;28;20429;-73
2021/07/26 10:07:20;;;;;;;1.60;1.50;;;28.90;74.90;;;;;;5058869;28;20422;-73
2021/07/26 10:09:47;;;;;;;2.43;2.23;;;28.60;72.70;;;;;;5053446;28;20440;-73
2021/07/26 10:12:17;;;;;;;2.70;2.00;;;28.50;74.90;;;;;;5064956;28;20194;-74
2021/07/26 10:14:47;;;;;;;3.00;2.40;;;28.50;77.00;;;;;;5064408;28;20434;-74
2021/07/26 10:17:13;;;;;;;1.97;1.70;;;28.50;76.30;;;;;;5065387;28;20448;-74
2021/07/26 10:19:38;;;;;;;2.57;2.33;;;28.50;78.00;;;;;;5062987;28;20485;-74
2021/07/26 10:22:09;;;;;;;2.23;2.03;;;28.50;76.60;;;;;;5066616;28;20430;-74
2021/07/26 10:24:46;;;;;;;2.30;2.10;;;28.60;78.20;;;;;;5058080;28;20218;-73
2021/07/26 10:27:16;;;;;;;2.87;2.30;;;28.60;78.00;;;;;;5063551;28;20444;-73
2021/07/26 10:30:00;;;;;;;4.60;1.90;;;28.50;76.60;;;;;;5065047;28;20456;-73
2021/07/26 10:32:41;;;;;;;6.03;1.80;;;28.30;76.80;;;;;;5054468;28;20472;-73
2021/07/26 10:37:50;;;;;;;2.27;2.10;;;28.20;79.60;;;;;;5071179;27;20558;-72
2021/07/26 10:40:27;;;;;;;2.80;1.93;;;28.20;78.60;;;;;;5066324;28;20451;-72
2021/07/26 10:42:54;;;;;;;1.63;1.53;;;28.30;80.10;;;;;;5056598;28;20633;-72
2021/07/26 10:51:01;;;;;;;2.00;1.83;;;28.00;76.80;;;;;;5128199;27;20550;-72
2021/07/26 10:56:21;;;;;;;1.60;1.50;;;27.80;78.40;;;;;;5061770;28;20538;-72
2021/07/26 11:04:00;;;;;;;1.70;1.50;;;27.70;81.20;;;;;;5059002;28;20544;-73
2021/07/26 11:12:02;;;;;;;1.80;1.70;;;27.20;77.70;;;;;;5059923;28;20732;-72
2021/07/26 11:14:28;;;;;;;2.00;1.60;;;26.80;81.40;;;;;;5049469;28;20447;-70
2021/07/26 11:25:08;;;;;;;1.67;1.43;;;26.80;84.90;;;;;;5063668;28;21007;-73
2021/07/26 11:30:12;;;;;;;2.73;1.40;;;26.50;84.20;;;;;;5079265;27;20588;-72
2021/07/26 11:32:39;;;;;;;2.07;1.97;;;26.40;82.80;;;;;;5061922;28;20426;-72
2021/07/26 11:35:05;;;;;;;1.97;1.63;;;26.30;83.10;;;;;;5061723;28;20433;-72
2021/07/26 11:40:11;;;;;;;2.10;1.73;;;26.00;82.60;;;;;;5064334;28;20536;-72
2021/07/26 11:42:39;;;;;;;1.80;1.40;;;26.10;85.70;;;;;;5039191;28;20418;-72
2021/07/26 11:45:06;;;;;;;2.90;1.83;;;26.20;85.10;;;;;;5036889;28;20641;-73
2021/07/26 11:47:37;;;;;;;2.97;2.20;;;26.20;84.60;;;;;;5045166;28;20993;-73
2021/07/26 11:50:05;;;;;;;1.50;1.40;;;26.40;85.40;;;;;;5042008;28;21305;-73
2021/07/26 11:52:31;;;;;;;1.90;1.50;;;26.50;82.80;;;;;;5043857;28;20795;-73
2021/07/26 11:54:56;;;;;;;3.00;1.70;;;26.60;81.80;;;;;;5056222;28;20427;-73
2021/07/26 11:57:22;;;;;;;2.17;1.83;;;26.70;82.20;;;;;;5043137;28;20181;-72
2021/07/26 11:59:57;;;;;;;1.90;1.57;;;26.60;79.90;;;;;;5044567;28;20778;-72
2021/07/26 12:05:07;;;;;;;2.07;1.87;;;26.40;79.70;;;;;;5063540;28;20558;-72
2021/07/26 12:10:34;;;;;;;1.40;1.30;;;26.50;80.40;;;;;;5064629;28;21104;-72
2021/07/26 12:15:48;;;;;;;1.80;1.70;;;26.60;82.60;;;;;;5057008;28;20659;-72
2021/07/26 12:18:15;;;;;;;2.40;2.00;;;26.50;82.20;;;;;;5048104;28;20426;-72
2021/07/26 12:20:55;;;;;;;2.10;1.90;;;26.50;80.00;;;;;;5044898;28;20424;-72
2021/07/26 12:23:22;;;;;;;2.60;1.43;;;26.60;85.70;;;;;;5045175;28;20407;-72
2021/07/26 12:25:54;;;;;;;1.23;1.13;;;26.70;90.20;;;;;;5043882;28;20422;-72
2021/07/26 12:28:41;;;;;;;1.90;1.70;;;26.70;83.70;;;;;;5055551;28;20418;-72
2021/07/26 12:31:30;;;;;;;4.50;1.30;;;26.60;81.00;;;;;;5059977;28;20418;-72
2021/07/26 12:34:21;;;;;;;1.60;1.50;;;26.30;81.30;;;;;;5051635;28;20453;-72
2021/07/26 12:36:47;;;;;;;1.80;1.67;;;26.10;82.50;;;;;;5048429;28;20427;-72
2021/07/26 12:39:14;;;;;;;1.97;1.40;;;26.00;81.80;;;;;;5043230;28;20474;-72
2021/07/26 12:41:44;;;;;;;2.50;1.20;;;26.10;84.80;;;;;;5044353;28;20851;-72
2021/07/26 12:46:51;;;;;;;2.63;1.70;;;26.10;85.60;;;;;;5112919;27;20566;-71
2021/07/26 12:49:19;;;;;;;1.50;1.40;;;25.90;83.90;;;;;;5107975;28;20431;-71
2021/07/26 12:51:46;;;;;;;10.40;1.80;;;25.90;87.10;;;;;;5103568;28;20428;-71
2021/07/26 12:54:12;;;;;;;2.30;1.73;;;25.70;84.80;;;;;;5103505;28;20428;-71
2021/07/26 12:56:38;;;;;;;1.53;1.43;;;25.70;85.10;;;;;;5102853;28;20423;-71
2021/07/26 12:59:03;;;;;;;1.73;1.50;;;25.60;87.40;;;;;;5097397;28;20203;-71
2021/07/26 13:01:29;;;;;;;2.07;1.60;;;25.60;87.90;;;;;;5086826;28;20174;-71
2021/07/26 13:03:55;;;;;;;1.73;1.40;;;25.60;86.70;;;;;;5085880;28;20181;-71
2021/07/26 13:06:21;;;;;;;5.33;2.10;;;25.60;88.20;;;;;;5083642;28;20190;-71
2021/07/26 13:08:47;;;;;;;1.70;1.60;;;25.70;88.00;;;;;;5077778;28;21021;-71
2021/07/26 13:11:12;;;;;;;1.83;1.73;;;25.80;90.20;;;;;;5084218;28;20505;-71
2021/07/26 13:13:38;;;;;;;1.63;1.53;;;25.80;88.00;;;;;;5082124;28;20690;-71
2021/07/26 13:16:05;;;;;;;1.63;1.53;;;25.80;87.50;;;;;;5081852;28;20183;-71
2021/07/26 13:18:30;;;;;;;1.83;1.50;;;25.60;85.70;;;;;;5084194;28;20210;-71
2021/07/26 13:20:56;;;;;;;1.77;1.50;;;25.60;90.70;;;;;;5085466;28;20467;-71
2021/07/26 13:23:21;;;;;;;2.00;1.80;;;25.60;90.50;;;;;;5088609;28;20220;-71
2021/07/26 13:25:47;;;;;;;2.47;1.90;;;25.60;91.90;;;;;;5082329;28;20206;-71
2021/07/26 13:28:13;;;;;;;1.70;1.40;;;25.70;86.70;;;;;;5081629;28;20211;-71
2021/07/26 13:30:39;;;;;;;1.43;1.33;;;25.70;88.50;;;;;;5084178;28;20588;-71
2021/07/26 13:33:07;;;;;;;2.30;1.70;;;25.80;89.20;;;;;;5088503;28;20412;-71
2021/07/26 13:35:34;;;;;;;2.20;1.60;;;25.90;90.90;;;;;;5088549;28;20836;-71
2021/07/26 13:38:01;;;;;;;2.20;1.77;;;26.00;87.50;;;;;;5088143;28;20421;-71
2021/07/26 13:40:26;;;;;;;1.73;1.50;;;26.00;88.50;;;;;;5088220;28;20906;-71
2021/07/26 13:42:53;;;;;;;2.10;1.90;;;25.90;87.50;;;;;;5068887;28;20529;-71
2021/07/26 13:45:18;;;;;;;2.83;2.07;;;25.80;88.70;;;;;;5077617;28;20195;-71
2021/07/26 13:47:44;;;;;;;2.03;1.50;;;25.70;87.50;;;;;;5088490;28;20435;-71
2021/07/26 13:50:10;;;;;;;1.63;1.47;;;25.70;89.90;;;;;;5087324;28;20187;-71
2021/07/26 13:52:36;;;;;;;2.20;1.77;;;25.70;92.40;;;;;;5088876;28;20335;-71
2021/07/26 13:55:03;;;;;;;2.20;1.97;;;25.80;92.50;;;;;;5088555;28;20189;-71